createdAt,value
2019-03-11T00:00:59.484Z,0
2019-03-11T00:01:59.470Z,0
2019-03-11T00:02:59.490Z,0
2019-03-11T00:03:59.441Z,0
2019-03-11T00:04:59.415Z,0
2019-03-11T00:05:59.405Z,0
2019-03-11T00:06:59.393Z,0
2019-03-11T00:07:59.374Z,0
2019-03-11T00:08:59.358Z,0
2019-03-11T00:09:59.349Z,0
2019-03-11T00:10:59.334Z,0
2019-03-11T00:11:59.332Z,0
2019-03-11T00:12:59.299Z,0
2019-03-11T00:13:59.290Z,0
2019-03-11T00:14:59.272Z,0
2019-03-11T00:15:59.261Z,0
2019-03-11T00:16:59.243Z,0
2019-03-11T00:17:59.235Z,0
2019-03-11T00:18:59.252Z,0
2019-03-11T00:19:59.194Z,0
2019-03-11T00:20:59.234Z,0
2019-03-11T00:21:59.218Z,0
2019-03-11T00:22:59.152Z,0
2019-03-11T00:23:59.148Z,0
2019-03-11T00:24:59.131Z,0
2019-03-11T00:25:59.124Z,0
2019-03-11T00:26:59.100Z,0
2019-03-11T00:27:59.084Z,0
2019-03-11T00:28:59.070Z,0
2019-03-11T00:29:59.059Z,0
2019-03-11T00:30:59.034Z,0
2019-03-11T00:31:59.022Z,0
2019-03-11T00:32:59.003Z,0
2019-03-11T00:33:58.988Z,0
2019-03-11T00:34:59.049Z,0
2019-03-11T00:35:58.963Z,0
2019-03-11T00:36:58.953Z,0
2019-03-11T00:37:58.934Z,0
2019-03-11T00:38:58.922Z,0
2019-03-11T00:39:58.664Z,0
2019-03-11T00:40:58.891Z,0
2019-03-11T00:41:58.874Z,0
2019-03-11T00:42:58.873Z,0
2019-03-11T00:43:58.912Z,0
2019-03-11T00:44:58.826Z,0
2019-03-11T00:45:58.820Z,0
2019-03-11T00:46:58.809Z,0
2019-03-11T00:48:09.122Z,0
2019-03-11T00:48:58.775Z,0
2019-03-11T00:49:58.761Z,0
2019-03-11T00:50:58.504Z,0
2019-03-11T00:51:58.750Z,0
2019-03-11T00:52:58.713Z,0
2019-03-11T00:53:58.702Z,0
2019-03-11T00:54:58.691Z,0
2019-03-11T00:55:58.670Z,0
2019-03-11T00:56:58.664Z,0
2019-03-11T00:57:58.648Z,0
2019-03-11T00:58:58.642Z,0
2019-03-11T00:59:58.616Z,0
2019-03-11T01:00:58.603Z,0
2019-03-11T01:01:58.621Z,0
2019-03-11T01:02:58.571Z,0
2019-03-11T01:03:58.310Z,0
2019-03-11T01:04:58.551Z,0
2019-03-11T01:05:58.522Z,0
2019-03-11T01:06:58.518Z,0
2019-03-11T01:07:58.513Z,0
2019-03-11T01:08:58.481Z,0
2019-03-11T01:09:58.465Z,0
2019-03-11T01:10:57.974Z,0
2019-03-11T01:11:58.635Z,0
2019-03-11T01:12:58.420Z,0
2019-03-11T01:13:58.407Z,0
2019-03-11T01:14:58.407Z,0
2019-03-11T01:15:58.138Z,0
2019-03-11T01:16:58.360Z,0
2019-03-11T01:17:58.350Z,0
2019-03-11T01:18:58.392Z,0
2019-03-11T01:19:58.320Z,0
2019-03-11T01:20:58.305Z,0
2019-03-11T01:21:58.297Z,0
2019-03-11T01:22:58.042Z,0
2019-03-11T01:23:58.258Z,0
2019-03-11T01:24:58.249Z,0
2019-03-11T01:25:58.255Z,0
2019-03-11T01:26:58.250Z,0
2019-03-11T01:27:58.203Z,0
2019-03-11T01:28:58.206Z,0
2019-03-11T01:29:58.245Z,0
2019-03-11T01:30:58.158Z,0
2019-03-11T01:31:58.142Z,0
2019-03-11T01:32:58.136Z,0
2019-03-11T01:33:58.112Z,0
2019-03-11T01:34:58.109Z,0
2019-03-11T01:35:58.090Z,0
2019-03-11T01:36:58.070Z,0
2019-03-11T01:37:58.060Z,0
2019-03-11T01:38:57.566Z,0
2019-03-11T01:39:58.069Z,0
2019-03-11T01:40:58.007Z,0
2019-03-11T01:41:57.996Z,0
2019-03-11T01:42:59.066Z,0
2019-03-11T01:43:57.969Z,0
2019-03-11T01:44:57.708Z,0
2019-03-11T01:45:57.942Z,0
2019-03-11T01:46:57.926Z,0
2019-03-11T01:47:57.924Z,0
2019-03-11T01:48:57.894Z,0
2019-03-11T01:49:57.882Z,0
2019-03-11T01:50:57.866Z,0
2019-03-11T01:51:57.844Z,0
2019-03-11T01:52:57.834Z,0
2019-03-11T01:53:57.825Z,0
2019-03-11T01:54:57.812Z,0
2019-03-11T01:55:57.548Z,0
2019-03-11T01:56:57.774Z,0
2019-03-11T01:57:57.779Z,0
2019-03-11T01:58:57.766Z,0
2019-03-11T01:59:57.736Z,0
2019-03-11T02:00:57.716Z,0
2019-03-11T02:01:58.118Z,0
2019-03-11T02:02:57.691Z,0
2019-03-11T02:03:57.672Z,0
2019-03-11T02:04:57.655Z,0
2019-03-11T02:05:57.640Z,0
2019-03-11T02:06:57.633Z,0
2019-03-11T02:07:57.623Z,0
2019-03-11T02:08:57.606Z,0
2019-03-11T02:09:57.635Z,0
2019-03-11T02:10:57.568Z,0
2019-03-11T02:11:57.559Z,0
2019-03-11T02:12:57.539Z,0
2019-03-11T02:13:57.529Z,0
2019-03-11T02:14:57.518Z,0
2019-03-11T02:15:57.498Z,0
2019-03-11T02:16:57.244Z,0
2019-03-11T02:17:57.495Z,0
2019-03-11T02:18:57.457Z,0
2019-03-11T02:19:57.442Z,0
2019-03-11T02:20:57.425Z,0
2019-03-11T02:21:57.411Z,0
2019-03-11T02:22:57.400Z,0
2019-03-11T02:23:57.382Z,0
2019-03-11T02:24:57.385Z,0
2019-03-11T02:25:57.352Z,0
2019-03-11T02:26:57.341Z,0
2019-03-11T02:27:57.322Z,0
2019-03-11T02:28:57.312Z,0
2019-03-11T02:29:57.313Z,0
2019-03-11T02:30:57.556Z,0
2019-03-11T02:31:57.283Z,0
2019-03-11T02:32:57.270Z,0
2019-03-11T02:33:57.262Z,0
2019-03-11T02:34:57.242Z,0
2019-03-11T02:35:57.229Z,0
2019-03-11T02:36:57.209Z,0
2019-03-11T02:37:57.216Z,0
2019-03-11T02:38:57.241Z,0
2019-03-11T02:39:57.159Z,0
2019-03-11T02:40:57.146Z,0
2019-03-11T02:41:57.143Z,0
2019-03-11T02:42:57.109Z,0
2019-03-11T02:43:57.107Z,0
2019-03-11T02:44:57.134Z,0
2019-03-11T02:45:57.068Z,0
2019-03-11T02:46:57.090Z,0
2019-03-11T02:47:57.045Z,0
2019-03-11T02:48:57.077Z,0
2019-03-11T02:49:57.019Z,0
2019-03-11T02:50:57.024Z,0
2019-03-11T02:51:57.009Z,0
2019-03-11T02:52:57.006Z,0
2019-03-11T02:53:56.967Z,0
2019-03-11T02:54:57.008Z,0
2019-03-11T02:56:00.288Z,0
2019-03-11T02:56:56.917Z,0
2019-03-11T02:57:56.900Z,0
2019-03-11T02:58:56.889Z,0
2019-03-11T02:59:56.892Z,0
2019-03-11T03:00:56.861Z,0
2019-03-11T03:01:56.858Z,0
2019-03-11T03:02:56.824Z,0
2019-03-11T03:03:56.805Z,0
2019-03-11T03:04:56.816Z,0
2019-03-11T03:05:56.772Z,0
2019-03-11T03:06:56.778Z,0
2019-03-11T03:07:56.746Z,0
2019-03-11T03:08:56.737Z,0
2019-03-11T03:09:56.724Z,0
2019-03-11T03:10:56.724Z,0
2019-03-11T03:11:56.698Z,0
2019-03-11T03:12:56.671Z,0
2019-03-11T03:13:56.534Z,0
2019-03-11T03:14:56.637Z,0
2019-03-11T03:15:56.524Z,0
2019-03-11T03:16:56.638Z,0
2019-03-11T03:17:56.622Z,0
2019-03-11T03:18:56.612Z,0
2019-03-11T03:19:56.563Z,0
2019-03-11T03:20:56.565Z,0
2019-03-11T03:21:56.573Z,0
2019-03-11T03:22:56.573Z,0
2019-03-11T03:23:56.538Z,0
2019-03-11T03:24:56.498Z,0
2019-03-11T03:25:56.488Z,0
2019-03-11T03:26:56.532Z,0
2019-03-11T03:27:57.178Z,0
2019-03-11T03:28:56.434Z,0
2019-03-11T03:29:56.223Z,0
2019-03-11T03:30:56.719Z,0
2019-03-11T03:31:56.430Z,0
2019-03-11T03:32:56.447Z,0
2019-03-11T03:33:56.425Z,0
2019-03-11T03:34:56.368Z,0
2019-03-11T03:35:56.338Z,0
2019-03-11T03:36:56.313Z,0
2019-03-11T03:37:56.303Z,0
2019-03-11T03:38:56.303Z,0
2019-03-11T03:39:56.033Z,0
2019-03-11T03:40:56.255Z,0
2019-03-11T03:41:56.247Z,0
2019-03-11T03:42:57.006Z,0
2019-03-11T03:43:56.264Z,0
2019-03-11T03:44:56.219Z,0
2019-03-11T03:45:55.946Z,0
2019-03-11T03:46:55.926Z,0
2019-03-11T03:47:56.158Z,0
2019-03-11T03:48:56.843Z,0
2019-03-11T03:49:56.203Z,0
2019-03-11T03:50:56.112Z,0
2019-03-11T03:51:56.097Z,0
2019-03-11T03:52:56.080Z,0
2019-03-11T03:53:56.103Z,0
2019-03-11T03:54:56.048Z,0
2019-03-11T03:55:56.046Z,0
2019-03-11T03:56:58.970Z,0
2019-03-11T03:57:56.021Z,0
2019-03-11T03:58:56.040Z,0
2019-03-11T03:59:55.968Z,0
2019-03-11T04:00:55.976Z,0
2019-03-11T04:01:55.968Z,0
2019-03-11T04:02:55.970Z,0
2019-03-11T04:03:55.927Z,0
2019-03-11T04:04:55.889Z,0
2019-03-11T04:05:55.934Z,0
2019-03-11T04:06:55.659Z,0
2019-03-11T04:07:55.877Z,0
2019-03-11T04:08:55.848Z,0
2019-03-11T04:09:56.135Z,0
2019-03-11T04:10:55.833Z,0
2019-03-11T04:11:55.804Z,0
2019-03-11T04:12:55.597Z,0
2019-03-11T04:13:55.764Z,0
2019-03-11T04:14:55.743Z,0
2019-03-11T04:15:55.795Z,0
2019-03-11T04:16:55.729Z,0
2019-03-11T04:17:55.751Z,0
2019-03-11T04:18:55.756Z,0
2019-03-11T04:19:55.668Z,0
2019-03-11T04:20:55.693Z,0
2019-03-11T04:21:55.644Z,0
2019-03-11T04:22:55.645Z,0
2019-03-11T04:23:55.625Z,0
2019-03-11T04:24:55.600Z,0
2019-03-11T04:25:55.594Z,0
2019-03-11T04:26:55.604Z,0
2019-03-11T04:27:55.083Z,0
2019-03-11T04:28:55.586Z,0
2019-03-11T04:29:55.525Z,0
2019-03-11T04:30:55.508Z,0
2019-03-11T04:31:55.497Z,0
2019-03-11T04:32:55.497Z,0
2019-03-11T04:33:55.463Z,0
2019-03-11T04:34:55.464Z,0
2019-03-11T04:35:55.462Z,0
2019-03-11T04:36:55.415Z,0
2019-03-11T04:37:55.405Z,0
2019-03-11T04:38:55.387Z,0
2019-03-11T04:39:55.376Z,0
2019-03-11T04:40:55.362Z,0
2019-03-11T04:41:55.338Z,0
2019-03-11T04:42:55.334Z,0
2019-03-11T04:43:55.337Z,0
2019-03-11T04:44:55.298Z,0
2019-03-11T04:45:55.280Z,0
2019-03-11T04:46:55.268Z,0
2019-03-11T04:47:55.330Z,0
2019-03-11T04:48:55.241Z,0
2019-03-11T04:49:55.236Z,0
2019-03-11T04:50:54.985Z,0
2019-03-11T04:51:55.201Z,0
2019-03-11T04:52:54.943Z,0
2019-03-11T04:53:55.166Z,0
2019-03-11T04:54:55.152Z,0
2019-03-11T04:55:55.151Z,0
2019-03-11T04:56:55.132Z,0
2019-03-11T04:57:54.880Z,0
2019-03-11T04:58:55.107Z,0
2019-03-11T04:59:55.078Z,0
2019-03-11T05:00:54.833Z,0
2019-03-11T05:01:55.051Z,0
2019-03-11T05:02:55.044Z,0
2019-03-11T05:03:55.825Z,0
2019-03-11T05:04:55.011Z,0
2019-03-11T05:05:55.006Z,0
2019-03-11T05:06:54.983Z,0
2019-03-11T05:07:54.962Z,0
2019-03-11T05:08:54.948Z,0
2019-03-11T05:09:54.930Z,0
2019-03-11T05:10:54.909Z,0
2019-03-11T05:11:54.887Z,0
2019-03-11T05:12:54.883Z,0
2019-03-11T05:13:54.858Z,0
2019-03-11T05:14:54.838Z,0
2019-03-11T05:15:54.830Z,0
2019-03-11T05:16:54.818Z,0
2019-03-11T05:17:57.771Z,0
2019-03-11T05:18:54.788Z,0
2019-03-11T05:19:54.560Z,0
2019-03-11T05:20:54.761Z,0
2019-03-11T05:21:54.746Z,0
2019-03-11T05:22:57.404Z,0
2019-03-11T05:23:54.717Z,0
2019-03-11T05:24:54.695Z,0
2019-03-11T05:25:54.453Z,0
2019-03-11T05:26:54.434Z,0
2019-03-11T05:27:54.655Z,0
2019-03-11T05:28:56.636Z,0
2019-03-11T05:29:54.622Z,0
2019-03-11T05:30:54.618Z,0
2019-03-11T05:31:54.666Z,0
2019-03-11T05:32:54.360Z,0
2019-03-11T05:33:54.575Z,0
2019-03-11T05:34:54.553Z,0
2019-03-11T05:35:54.551Z,5
2019-03-11T05:36:54.526Z,5
2019-03-11T05:37:54.509Z,5
2019-03-11T05:38:54.508Z,5
2019-03-11T05:39:54.480Z,5
2019-03-11T05:40:54.603Z,5
2019-03-11T05:41:54.454Z,5
2019-03-11T05:42:54.213Z,5
2019-03-11T05:43:54.427Z,5
2019-03-11T05:44:54.408Z,5
2019-03-11T05:45:54.402Z,10
2019-03-11T05:46:54.418Z,10
2019-03-11T05:47:54.403Z,10
2019-03-11T05:48:54.368Z,10
2019-03-11T05:49:54.369Z,10
2019-03-11T05:50:54.345Z,10
2019-03-11T05:51:56.435Z,15
2019-03-11T05:52:54.091Z,15
2019-03-11T05:53:54.304Z,20
2019-03-11T05:54:54.280Z,25
2019-03-11T05:55:54.762Z,25
2019-03-11T05:56:54.254Z,30
2019-03-11T05:57:53.998Z,30
2019-03-11T05:58:54.227Z,30
2019-03-11T05:59:54.218Z,30
2019-03-11T06:00:54.198Z,30
2019-03-11T06:01:54.186Z,30
2019-03-11T06:02:54.170Z,35
2019-03-11T06:03:54.155Z,35
2019-03-11T06:04:54.148Z,40
2019-03-11T06:05:54.151Z,35
2019-03-11T06:06:54.111Z,35
2019-03-11T06:07:54.185Z,35
2019-03-11T06:08:54.082Z,40
2019-03-11T06:09:54.068Z,35
2019-03-11T06:10:54.054Z,45
2019-03-11T06:11:54.043Z,50
2019-03-11T06:12:54.947Z,55
2019-03-11T06:13:54.013Z,55
2019-03-11T06:14:54.006Z,60
2019-03-11T06:15:53.996Z,65
2019-03-11T06:16:53.979Z,70
2019-03-11T06:17:54.489Z,65
2019-03-11T06:18:54.267Z,70
2019-03-11T06:19:53.931Z,65
2019-03-11T06:20:53.910Z,60
2019-03-11T06:21:53.900Z,55
2019-03-11T06:22:53.885Z,55
2019-03-11T06:23:53.888Z,60
2019-03-11T06:24:53.857Z,60
2019-03-11T06:25:53.856Z,65
2019-03-11T06:26:53.832Z,70
2019-03-11T06:27:53.818Z,75
2019-03-11T06:28:53.808Z,80
2019-03-11T06:29:53.791Z,85
2019-03-11T06:30:53.779Z,85
2019-03-11T06:31:53.763Z,80
2019-03-11T06:32:53.748Z,75
2019-03-11T06:33:53.735Z,75
2019-03-11T06:34:53.719Z,80
2019-03-11T06:35:53.711Z,80
2019-03-11T06:36:53.688Z,75
2019-03-11T06:37:53.440Z,75
2019-03-11T06:38:53.660Z,75
2019-03-11T06:39:53.653Z,70
2019-03-11T06:40:55.487Z,85
2019-03-11T06:41:53.622Z,105
2019-03-11T06:42:53.611Z,120
2019-03-11T06:43:53.599Z,135
2019-03-11T06:44:53.594Z,145
2019-03-11T06:45:53.562Z,155
2019-03-11T06:46:55.598Z,160
2019-03-11T06:47:53.551Z,160
2019-03-11T06:48:53.534Z,165
2019-03-11T06:49:53.521Z,165
2019-03-11T06:50:53.515Z,170
2019-03-11T06:51:53.487Z,175
2019-03-11T06:52:53.476Z,175
2019-03-11T06:53:53.460Z,175
2019-03-11T06:54:53.451Z,180
2019-03-11T06:55:53.431Z,190
2019-03-11T06:56:53.178Z,195
2019-03-11T06:57:53.407Z,190
2019-03-11T06:58:53.417Z,185
2019-03-11T06:59:53.381Z,190
2019-03-11T07:00:53.374Z,190
2019-03-11T07:01:53.351Z,190
2019-03-11T07:02:53.343Z,195
2019-03-11T07:03:53.326Z,205
2019-03-11T07:04:53.317Z,230
2019-03-11T07:05:53.059Z,265
2019-03-11T07:06:53.299Z,230
2019-03-11T07:07:53.290Z,250
2019-03-11T07:08:53.282Z,320
2019-03-11T07:09:53.252Z,310
2019-03-11T07:10:53.245Z,320
2019-03-11T07:11:53.224Z,400
2019-03-11T07:12:53.221Z,425
2019-03-11T07:13:53.213Z,490
2019-03-11T07:14:53.188Z,660
2019-03-11T07:15:53.180Z,665
2019-03-11T07:16:52.919Z,690
2019-03-11T07:17:53.203Z,700
2019-03-11T07:18:53.147Z,610
2019-03-11T07:19:53.133Z,645
2019-03-11T07:20:53.119Z,470
2019-03-11T07:21:53.111Z,495
2019-03-11T07:22:53.100Z,520
2019-03-11T07:23:53.087Z,405
2019-03-11T07:24:53.082Z,445
2019-03-11T07:25:53.083Z,600
2019-03-11T07:26:53.094Z,670
2019-03-11T07:27:53.055Z,635
2019-03-11T07:28:53.044Z,635
2019-03-11T07:29:53.047Z,735
2019-03-11T07:30:53.019Z,770
2019-03-11T07:31:53.014Z,690
2019-03-11T07:32:53.012Z,610
2019-03-11T07:33:53.100Z,565
2019-03-11T07:34:52.998Z,585
2019-03-11T07:35:53.020Z,580
2019-03-11T07:36:52.974Z,595
2019-03-11T07:37:52.974Z,505
2019-03-11T07:38:52.971Z,365
2019-03-11T07:39:52.952Z,550
2019-03-11T07:40:52.947Z,675
2019-03-11T07:41:52.939Z,685
2019-03-11T07:42:52.941Z,670
2019-03-11T07:43:52.933Z,620
2019-03-11T07:44:52.917Z,665
2019-03-11T07:45:52.909Z,710
2019-03-11T07:46:55.044Z,685
2019-03-11T07:47:52.904Z,635
2019-03-11T07:48:52.648Z,660
2019-03-11T07:49:52.654Z,660
2019-03-11T07:50:52.878Z,640
2019-03-11T07:51:52.872Z,645
2019-03-11T07:52:53.301Z,605
2019-03-11T07:53:52.887Z,620
2019-03-11T07:54:52.867Z,610
2019-03-11T07:55:52.853Z,490
2019-03-11T07:56:52.841Z,335
2019-03-11T07:57:52.868Z,315
2019-03-11T07:58:52.844Z,415
2019-03-11T07:59:52.826Z,340
2019-03-11T08:01:03.323Z,345
2019-03-11T08:01:52.879Z,385
2019-03-11T08:02:52.827Z,300
2019-03-11T08:03:52.797Z,350
2019-03-11T08:04:52.793Z,460
2019-03-11T08:05:52.783Z,370
2019-03-11T08:06:52.778Z,310
2019-03-11T08:07:52.963Z,335
2019-03-11T08:08:52.765Z,320
2019-03-11T08:09:52.520Z,320
2019-03-11T08:10:52.767Z,330
2019-03-11T08:11:52.745Z,285
2019-03-11T08:12:52.736Z,320
2019-03-11T08:13:53.238Z,310
2019-03-11T08:14:52.741Z,225
2019-03-11T08:15:52.708Z,220
2019-03-11T08:16:52.731Z,185
2019-03-11T08:17:52.757Z,180
2019-03-11T08:18:52.993Z,245
2019-03-11T08:19:52.677Z,240
2019-03-11T08:20:52.681Z,225
2019-03-11T08:21:52.660Z,215
2019-03-11T08:22:52.662Z,240
2019-03-11T08:23:52.904Z,220
2019-03-11T08:24:52.659Z,175
2019-03-11T08:25:52.681Z,190
2019-03-11T08:26:52.622Z,220
2019-03-11T08:27:52.365Z,185
2019-03-11T08:28:52.592Z,200
2019-03-11T08:29:52.590Z,165
2019-03-11T08:30:52.571Z,215
2019-03-11T08:31:52.562Z,270
2019-03-11T08:32:52.557Z,270
2019-03-11T08:33:52.540Z,300
2019-03-11T08:34:52.537Z,270
2019-03-11T08:35:52.527Z,270
2019-03-11T08:36:52.520Z,250
2019-03-11T08:37:52.501Z,205
2019-03-11T08:38:52.499Z,180
2019-03-11T08:39:52.485Z,200
2019-03-11T08:40:52.595Z,220
2019-03-11T08:41:52.466Z,225
2019-03-11T08:42:52.462Z,195
2019-03-11T08:43:52.436Z,215
2019-03-11T08:44:52.427Z,175
2019-03-11T08:45:52.416Z,170
2019-03-11T08:46:54.190Z,185
2019-03-11T08:47:52.400Z,190
2019-03-11T08:48:52.385Z,195
2019-03-11T08:49:52.375Z,230
2019-03-11T08:50:52.370Z,190
2019-03-11T08:51:52.358Z,165
2019-03-11T08:52:52.362Z,130
2019-03-11T08:53:52.331Z,160
2019-03-11T08:54:52.321Z,140
2019-03-11T08:55:52.093Z,120
2019-03-11T08:56:52.297Z,125
2019-03-11T08:57:52.302Z,155
2019-03-11T08:58:52.287Z,175
2019-03-11T08:59:52.266Z,150
2019-03-11T09:00:52.262Z,155
2019-03-11T09:01:52.001Z,130
2019-03-11T09:02:52.242Z,130
2019-03-11T09:03:55.070Z,145
2019-03-11T09:04:52.210Z,165
2019-03-11T09:05:52.206Z,150
2019-03-11T09:06:52.188Z,125
2019-03-11T09:07:52.193Z,130
2019-03-11T09:08:52.170Z,160
2019-03-11T09:09:52.181Z,205
2019-03-11T09:10:51.916Z,120
2019-03-11T09:11:52.133Z,125
2019-03-11T09:12:51.901Z,140
2019-03-11T09:13:52.109Z,170
2019-03-11T09:14:52.102Z,150
2019-03-11T09:15:52.953Z,135
2019-03-11T09:16:52.080Z,160
2019-03-11T09:17:52.096Z,185
2019-03-11T09:18:52.053Z,165
2019-03-11T09:19:52.048Z,170
2019-03-11T09:20:52.036Z,180
2019-03-11T09:21:52.017Z,175
2019-03-11T09:22:52.019Z,220
2019-03-11T09:23:52.003Z,295
2019-03-11T09:24:51.995Z,355
2019-03-11T09:25:51.971Z,380
2019-03-11T09:26:51.989Z,390
2019-03-11T09:27:53.329Z,390
2019-03-11T09:28:51.937Z,370
2019-03-11T09:29:51.967Z,340
2019-03-11T09:30:51.922Z,345
2019-03-11T09:31:51.903Z,330
2019-03-11T09:32:51.900Z,340
2019-03-11T09:33:51.883Z,355
2019-03-11T09:34:51.899Z,310
2019-03-11T09:35:51.859Z,260
2019-03-11T09:36:51.855Z,205
2019-03-11T09:37:51.836Z,180
2019-03-11T09:38:51.829Z,170
2019-03-11T09:39:51.815Z,190
2019-03-11T09:40:51.803Z,190
2019-03-11T09:41:51.800Z,220
2019-03-11T09:42:51.826Z,260
2019-03-11T09:43:51.861Z,360
2019-03-11T09:44:51.779Z,345
2019-03-11T09:45:51.751Z,390
2019-03-11T09:46:51.753Z,350
2019-03-11T09:47:51.565Z,310
2019-03-11T09:48:54.410Z,385
2019-03-11T09:49:51.714Z,450
2019-03-11T09:50:51.696Z,385
2019-03-11T09:51:51.695Z,330
2019-03-11T09:52:51.689Z,410
2019-03-11T09:53:51.429Z,350
2019-03-11T09:54:51.654Z,340
2019-03-11T09:55:51.677Z,335
2019-03-11T09:56:53.173Z,355
2019-03-11T09:57:51.637Z,330
2019-03-11T09:58:51.619Z,225
2019-03-11T09:59:51.602Z,245
2019-03-11T10:00:51.598Z,175
2019-03-11T10:01:51.579Z,150
2019-03-11T10:03:01.726Z,180
2019-03-11T10:03:51.562Z,205
2019-03-11T10:04:51.547Z,230
2019-03-11T10:05:51.538Z,200
2019-03-11T10:06:51.534Z,160
2019-03-11T10:07:51.694Z,155
2019-03-11T10:08:51.512Z,170
2019-03-11T10:09:51.259Z,190
2019-03-11T10:10:51.498Z,175
2019-03-11T10:11:51.478Z,180
2019-03-11T10:12:51.316Z,165
2019-03-11T10:13:51.464Z,160
2019-03-11T10:14:51.454Z,205
2019-03-11T10:15:51.457Z,245
2019-03-11T10:16:51.431Z,245
2019-03-11T10:17:51.419Z,285
2019-03-11T10:18:52.795Z,335
2019-03-11T10:19:51.396Z,395
2019-03-11T10:20:51.388Z,455
2019-03-11T10:21:51.386Z,515
2019-03-11T10:22:51.372Z,555
2019-03-11T10:23:51.354Z,565
2019-03-11T10:24:51.354Z,600
2019-03-11T10:25:51.337Z,630
2019-03-11T10:26:51.082Z,605
2019-03-11T10:27:51.386Z,570
2019-03-11T10:28:51.311Z,520
2019-03-11T10:29:51.291Z,500
2019-03-11T10:30:51.285Z,500
2019-03-11T10:31:51.298Z,520
2019-03-11T10:32:51.264Z,590
2019-03-11T10:33:51.279Z,625
2019-03-11T10:34:51.263Z,535
2019-03-11T10:35:51.231Z,575
2019-03-11T10:36:51.234Z,605
2019-03-11T10:37:51.228Z,525
2019-03-11T10:38:51.227Z,370
2019-03-11T10:39:52.804Z,410
2019-03-11T10:40:51.193Z,365
2019-03-11T10:41:50.941Z,365
2019-03-11T10:42:51.181Z,410
2019-03-11T10:43:51.161Z,450
2019-03-11T10:44:51.151Z,380
2019-03-11T10:45:51.172Z,285
2019-03-11T10:46:52.214Z,280
2019-03-11T10:47:51.141Z,300
2019-03-11T10:48:51.128Z,405
2019-03-11T10:49:51.124Z,345
2019-03-11T10:50:51.396Z,235
2019-03-11T10:51:51.092Z,210
2019-03-11T10:52:51.106Z,205
2019-03-11T10:53:51.129Z,235
2019-03-11T10:54:51.070Z,250
2019-03-11T10:55:51.067Z,315
2019-03-11T10:56:51.051Z,305
2019-03-11T10:57:51.061Z,335
2019-03-11T10:58:51.046Z,355
2019-03-11T10:59:51.025Z,340
2019-03-11T11:00:51.030Z,465
2019-03-11T11:01:51.007Z,490
2019-03-11T11:02:51.001Z,490
2019-03-11T11:03:50.991Z,385
2019-03-11T11:04:52.844Z,265
2019-03-11T11:05:50.974Z,280
2019-03-11T11:06:50.964Z,320
2019-03-11T11:07:50.731Z,320
2019-03-11T11:08:50.943Z,315
2019-03-11T11:09:50.943Z,310
2019-03-11T11:10:50.925Z,350
2019-03-11T11:11:50.919Z,390
2019-03-11T11:12:50.909Z,400
2019-03-11T11:13:50.654Z,430
2019-03-11T11:14:50.888Z,445
2019-03-11T11:15:50.881Z,465
2019-03-11T11:16:53.533Z,465
2019-03-11T11:17:50.867Z,470
2019-03-11T11:18:50.863Z,485
2019-03-11T11:19:50.846Z,495
2019-03-11T11:20:50.890Z,495
2019-03-11T11:21:50.824Z,500
2019-03-11T11:22:50.817Z,500
2019-03-11T11:23:50.807Z,520
2019-03-11T11:24:50.801Z,520
2019-03-11T11:25:50.787Z,535
2019-03-11T11:26:50.786Z,555
2019-03-11T11:27:50.771Z,575
2019-03-11T11:28:50.785Z,585
2019-03-11T11:29:50.749Z,595
2019-03-11T11:30:50.765Z,595
2019-03-11T11:31:50.490Z,595
2019-03-11T11:32:50.723Z,595
2019-03-11T11:33:50.715Z,595
2019-03-11T11:34:50.707Z,590
2019-03-11T11:35:50.703Z,580
2019-03-11T11:36:50.695Z,570
2019-03-11T11:37:50.472Z,545
2019-03-11T11:38:50.678Z,530
2019-03-11T11:39:50.667Z,505
2019-03-11T11:40:50.658Z,485
2019-03-11T11:41:50.694Z,455
2019-03-11T11:42:50.648Z,430
2019-03-11T11:43:50.634Z,410
2019-03-11T11:44:50.631Z,380
2019-03-11T11:45:50.671Z,360
2019-03-11T11:46:50.621Z,340
2019-03-11T11:47:50.608Z,300
2019-03-11T11:48:50.595Z,235
2019-03-11T11:49:50.589Z,200
2019-03-11T11:50:50.339Z,210
2019-03-11T11:51:50.574Z,160
2019-03-11T11:52:50.573Z,160
2019-03-11T11:53:50.557Z,185
2019-03-11T11:54:50.566Z,185
2019-03-11T11:56:00.024Z,205
2019-03-11T11:56:50.539Z,185
2019-03-11T11:57:50.531Z,175
2019-03-11T11:58:50.516Z,150
2019-03-11T12:00:01.137Z,145
2019-03-11T12:00:50.504Z,180
2019-03-11T12:01:50.486Z,190
2019-03-11T12:02:50.486Z,200
2019-03-11T12:03:50.232Z,180
2019-03-11T12:04:50.463Z,195
2019-03-11T12:05:50.210Z,185
2019-03-11T12:06:50.441Z,150
2019-03-11T12:07:50.484Z,185
2019-03-11T12:08:50.447Z,250
2019-03-11T12:09:50.421Z,200
2019-03-11T12:10:50.412Z,160
2019-03-11T12:11:50.451Z,135
2019-03-11T12:12:50.394Z,135
2019-03-11T12:13:50.382Z,165
2019-03-11T12:14:50.368Z,155
2019-03-11T12:15:50.357Z,115
2019-03-11T12:16:50.364Z,95
2019-03-11T12:17:50.358Z,95
2019-03-11T12:18:50.331Z,105
2019-03-11T12:19:50.332Z,105
2019-03-11T12:20:50.380Z,95
2019-03-11T12:21:50.363Z,85
2019-03-11T12:22:52.296Z,85
2019-03-11T12:23:55.944Z,95
2019-03-11T12:24:50.263Z,125
2019-03-11T12:25:50.257Z,110
2019-03-11T12:26:51.073Z,105
2019-03-11T12:28:03.043Z,95
2019-03-11T12:28:50.222Z,90
2019-03-11T12:29:50.208Z,105
2019-03-11T12:30:50.197Z,145
2019-03-11T12:31:50.188Z,180
2019-03-11T12:32:50.187Z,150
2019-03-11T12:33:50.173Z,190
2019-03-11T12:34:50.157Z,220
2019-03-11T12:35:50.148Z,210
2019-03-11T12:36:50.138Z,185
2019-03-11T12:37:50.124Z,180
2019-03-11T12:38:50.113Z,195
2019-03-11T12:39:50.114Z,225
2019-03-11T12:40:50.113Z,240
2019-03-11T12:41:50.341Z,260
2019-03-11T12:42:50.081Z,275
2019-03-11T12:43:49.809Z,300
2019-03-11T12:44:50.042Z,330
2019-03-11T12:45:50.036Z,335
2019-03-11T12:46:50.022Z,340
2019-03-11T12:47:50.011Z,345
2019-03-11T12:48:50.007Z,345
2019-03-11T12:49:50.030Z,325
2019-03-11T12:50:49.985Z,305
2019-03-11T12:51:59.259Z,285
2019-03-11T12:52:49.953Z,280
2019-03-11T12:53:49.939Z,265
2019-03-11T12:54:49.700Z,255
2019-03-11T12:55:49.920Z,265
2019-03-11T12:56:49.903Z,280
2019-03-11T12:57:49.906Z,275
2019-03-11T12:58:51.401Z,265
2019-03-11T12:59:50.461Z,265
2019-03-11T13:00:49.856Z,265
2019-03-11T13:01:49.855Z,270
2019-03-11T13:02:49.835Z,270
2019-03-11T13:03:49.841Z,280
2019-03-11T13:04:49.824Z,285
2019-03-11T13:05:49.804Z,295
2019-03-11T13:06:49.796Z,295
2019-03-11T13:07:49.798Z,295
2019-03-11T13:08:49.771Z,285
2019-03-11T13:09:49.759Z,270
2019-03-11T13:10:50.064Z,275
2019-03-11T13:11:49.744Z,295
2019-03-11T13:12:49.740Z,315
2019-03-11T13:13:49.733Z,345
2019-03-11T13:14:49.709Z,375
2019-03-11T13:15:49.736Z,390
2019-03-11T13:16:49.690Z,395
2019-03-11T13:17:49.676Z,395
2019-03-11T13:18:49.682Z,385
2019-03-11T13:19:49.656Z,335
2019-03-11T13:20:49.643Z,315
2019-03-11T13:21:49.639Z,255
2019-03-11T13:22:49.624Z,230
2019-03-11T13:23:51.106Z,200
2019-03-11T13:24:49.604Z,175
2019-03-11T13:25:49.593Z,150
2019-03-11T13:26:49.343Z,125
2019-03-11T13:27:49.575Z,125
2019-03-11T13:28:49.558Z,125
2019-03-11T13:29:49.566Z,155
2019-03-11T13:30:49.547Z,145
2019-03-11T13:31:49.626Z,160
2019-03-11T13:32:49.527Z,170
2019-03-11T13:33:49.515Z,160
2019-03-11T13:34:49.519Z,215
2019-03-11T13:35:49.488Z,165
2019-03-11T13:36:49.483Z,155
2019-03-11T13:37:49.474Z,185
2019-03-11T13:38:49.463Z,255
2019-03-11T13:39:49.455Z,345
2019-03-11T13:40:49.439Z,345
2019-03-11T13:41:49.441Z,345
2019-03-11T13:42:49.420Z,390
2019-03-11T13:43:51.154Z,485
2019-03-11T13:44:49.414Z,505
2019-03-11T13:45:49.153Z,490
2019-03-11T13:46:49.378Z,425
2019-03-11T13:47:49.464Z,345
2019-03-11T13:48:49.382Z,325
2019-03-11T13:49:49.349Z,260
2019-03-11T13:50:49.360Z,225
2019-03-11T13:51:49.390Z,225
2019-03-11T13:52:49.315Z,240
2019-03-11T13:53:49.306Z,240
2019-03-11T13:54:49.057Z,210
2019-03-11T13:55:49.437Z,185
2019-03-11T13:56:49.273Z,175
2019-03-11T13:57:49.028Z,185
2019-03-11T13:58:49.262Z,175
2019-03-11T13:59:49.236Z,125
2019-03-11T14:00:59.156Z,100
2019-03-11T14:01:49.222Z,110
2019-03-11T14:02:49.249Z,125
2019-03-11T14:03:49.436Z,115
2019-03-11T14:04:51.221Z,110
2019-03-11T14:05:49.178Z,120
2019-03-11T14:06:49.177Z,140
2019-03-11T14:07:49.160Z,185
2019-03-11T14:08:49.160Z,205
2019-03-11T14:09:49.156Z,210
2019-03-11T14:10:49.135Z,220
2019-03-11T14:11:49.117Z,210
2019-03-11T14:12:48.868Z,205